createdAt,value
2023-01-17T00:00:46.061Z,94248.88
2023-01-17T00:03:33.977Z,94249.06
2023-01-17T00:06:46.009Z,94249.06
2023-01-17T00:09:52.749Z,94262.03
2023-01-17T00:12:39.993Z,94267.31
2023-01-17T00:15:30.912Z,94259.84
2023-01-17T00:18:17.730Z,94263.94
2023-01-17T00:21:23.219Z,94278.84
2023-01-17T00:24:28.757Z,94274.25
2023-01-17T00:27:15.510Z,94277.47
2023-01-17T00:30:02.331Z,94282.16
2023-01-17T00:32:49.201Z,94278.13
2023-01-17T00:35:36.046Z,94278.47
2023-01-17T00:38:28.372Z,94282.38
2023-01-17T00:41:15.217Z,94292.91
2023-01-17T00:44:20.813Z,94299.19
2023-01-17T00:47:26.193Z,94304.25
2023-01-17T00:50:31.387Z,94319.25
2023-01-17T00:53:36.792Z,94315.81
2023-01-17T00:56:42.203Z,94316.81
2023-01-17T00:59:47.559Z,94321.28
2023-01-17T01:02:53.250Z,94317.59
2023-01-17T01:06:00.051Z,94335.84
2023-01-17T01:09:05.664Z,94330.19
2023-01-17T01:12:11.260Z,94325.97
2023-01-17T01:15:16.810Z,94341.31
2023-01-17T01:18:27.069Z,94339.94
2023-01-17T01:24:12.253Z,94342.03
2023-01-17T01:27:17.911Z,94350.28
2023-01-17T01:30:34.585Z,94348.25
2023-01-17T01:33:23.371Z,94352.38
2023-01-17T01:36:12.557Z,94362.09
2023-01-17T01:39:11.269Z,94349.19
2023-01-17T01:45:07.047Z,94358.06
2023-01-17T01:48:13.390Z,94353.97
2023-01-17T01:51:06.778Z,94353.59
2023-01-17T01:54:04.127Z,94353.81
2023-01-17T01:56:55.237Z,94350.00
2023-01-17T01:59:45.877Z,94363.91
2023-01-17T02:02:32.919Z,94358.84
2023-01-17T02:05:26.095Z,94360.47
2023-01-17T02:08:20.818Z,94347.53
2023-01-17T02:11:13.090Z,94360.88
2023-01-17T02:14:00.350Z,94349.19
2023-01-17T02:17:20.711Z,94361.72
2023-01-17T02:20:32.711Z,94362.94
2023-01-17T02:24:00.116Z,94364.78
2023-01-17T02:27:05.370Z,94363.38
2023-01-17T02:30:20.235Z,94357.97
2023-01-17T02:33:28.133Z,94366.66
2023-01-17T02:36:21.133Z,94355.59
2023-01-17T02:39:27.085Z,94368.94
2023-01-17T02:42:27.912Z,94354.00
2023-01-17T02:45:20.507Z,94354.22
2023-01-17T02:48:12.020Z,94354.22
2023-01-17T02:51:24.536Z,94352.97
2023-01-17T02:54:34.324Z,94366.72
2023-01-17T02:57:55.355Z,94363.28
2023-01-17T03:00:57.571Z,94360.28
2023-01-17T03:03:49.096Z,94376.88
2023-01-17T03:06:52.922Z,94375.69
2023-01-17T03:09:43.882Z,94382.38
2023-01-17T03:12:36.031Z,94377.72
2023-01-17T03:15:25.774Z,94384.16
2023-01-17T03:18:24.218Z,94387.63
2023-01-17T03:21:13.257Z,94376.13
2023-01-17T03:24:03.182Z,94392.06
2023-01-17T03:26:50.123Z,94400.19
2023-01-17T03:29:44.974Z,94397.41
2023-01-17T03:32:45.381Z,94404.69
2023-01-17T03:35:32.452Z,94398.81
2023-01-17T03:38:22.015Z,94403.66
2023-01-17T03:41:15.013Z,94396.81
2023-01-17T03:44:04.279Z,94411.38
2023-01-17T03:46:56.591Z,94419.63
2023-01-17T03:49:52.450Z,94414.84
2023-01-17T03:52:42.771Z,94410.59
2023-01-17T03:55:35.038Z,94414.41
2023-01-17T03:58:24.418Z,94419.72
2023-01-17T04:01:14.138Z,94427.38
2023-01-17T04:04:05.083Z,94441.75
2023-01-17T04:06:59.286Z,94435.47
2023-01-17T04:09:50.398Z,94423.56
2023-01-17T04:12:37.806Z,94438.53
2023-01-17T04:15:33.432Z,94429.44
2023-01-17T04:18:22.686Z,94430.03
2023-01-17T04:21:15.030Z,94451.03
2023-01-17T04:24:01.880Z,94439.97
2023-01-17T04:26:51.274Z,94441.56
2023-01-17T04:29:38.390Z,94434.56
2023-01-17T04:32:31.667Z,94436.72
2023-01-17T04:35:21.392Z,94441.19
2023-01-17T04:38:11.085Z,94454.31
2023-01-17T04:40:58.009Z,94443.63
2023-01-17T04:43:48.454Z,94444.44
2023-01-17T04:46:40.502Z,94454.16
2023-01-17T04:49:27.527Z,94461.59
2023-01-17T04:52:15.194Z,94462.84
2023-01-17T04:55:09.705Z,94464.03
2023-01-17T04:58:09.691Z,94469.47
2023-01-17T05:01:38.482Z,94462.25
2023-01-17T05:04:35.033Z,94460.25
2023-01-17T05:08:08.873Z,94460.00
2023-01-17T05:10:56.108Z,94462.06
2023-01-17T05:13:43.183Z,94466.31
2023-01-17T05:16:32.123Z,94454.84
2023-01-17T05:19:22.444Z,94475.44
2023-01-17T05:22:17.956Z,94477.06
2023-01-17T05:25:05.234Z,94483.91
2023-01-17T05:27:52.445Z,94480.69
2023-01-17T05:30:44.817Z,94489.41
2023-01-17T05:33:43.847Z,94482.94
2023-01-17T05:37:42.499Z,94485.56
2023-01-17T05:40:44.936Z,94493.66
2023-01-17T05:43:59.426Z,94486.41
2023-01-17T05:59:47.480Z,94492.69
2023-01-17T06:02:57.186Z,94501.97
2023-01-17T06:05:46.681Z,94500.19
2023-01-17T06:09:06.179Z,94502.63
2023-01-17T06:12:05.115Z,94503.84
2023-01-17T06:15:01.867Z,94502.22
2023-01-17T06:17:48.663Z,94512.53
2023-01-17T06:20:40.919Z,94517.22
2023-01-17T06:23:31.036Z,94506.72
2023-01-17T06:26:34.061Z,94516.81
2023-01-17T06:29:20.851Z,94515.63
2023-01-17T06:32:10.441Z,94516.03
2023-01-17T06:34:57.313Z,94534.03
2023-01-17T06:37:44.106Z,94536.84
2023-01-17T06:40:31.000Z,94539.72
2023-01-17T06:43:17.825Z,94546.78
2023-01-17T06:46:04.701Z,94536.88
2023-01-17T06:48:51.625Z,94545.59
2023-01-17T06:51:38.554Z,94548.81
2023-01-17T06:54:25.474Z,94569.44
2023-01-17T06:57:12.257Z,94549.84
2023-01-17T06:59:59.190Z,94556.31
2023-01-17T07:02:49.425Z,94549.28
2023-01-17T07:05:36.454Z,94562.00
2023-01-17T07:08:23.383Z,94567.25
2023-01-17T07:11:10.952Z,94570.91
2023-01-17T07:13:59.255Z,94560.78
2023-01-17T07:16:49.130Z,94562.84
2023-01-17T07:19:36.101Z,94552.91
2023-01-17T07:22:24.074Z,94557.19
2023-01-17T07:25:11.296Z,94551.53
2023-01-17T07:27:58.202Z,94552.16
2023-01-17T07:30:46.495Z,94540.22
2023-01-17T07:33:33.462Z,94557.59
2023-01-17T07:36:20.247Z,94557.00
2023-01-17T07:39:07.398Z,94559.03
2023-01-17T07:41:54.632Z,94564.06
2023-01-17T07:44:44.110Z,94548.91
2023-01-17T07:47:31.472Z,94550.97
2023-01-17T07:50:18.407Z,94540.06
2023-01-17T07:53:05.628Z,94540.25
2023-01-17T07:55:55.437Z,94528.75
2023-01-17T07:58:43.080Z,94526.94
2023-01-17T08:01:29.991Z,94543.28
2023-01-17T08:04:16.865Z,94536.41
2023-01-17T08:07:03.669Z,94538.44
2023-01-17T08:09:50.683Z,94527.53
2023-01-17T08:12:38.541Z,94522.47
2023-01-17T08:15:26.848Z,94523.28
2023-01-17T08:18:16.441Z,94532.78
2023-01-17T08:21:04.162Z,94538.03
2023-01-17T08:23:52.186Z,94522.09
2023-01-17T08:27:06.710Z,94506.72
2023-01-17T08:29:53.793Z,94518.25
2023-01-17T08:32:44.372Z,94522.72
2023-01-17T08:35:36.046Z,94539.88
2023-01-17T08:38:24.032Z,94522.91
2023-01-17T08:41:13.210Z,94528.59
2023-01-17T08:44:00.197Z,94524.53
2023-01-17T08:46:49.062Z,94524.13
2023-01-17T08:49:38.933Z,94523.72
2023-01-17T08:52:26.406Z,94533.00
2023-01-17T08:55:13.389Z,94532.41
2023-01-17T08:58:02.220Z,94526.53
2023-01-17T09:00:49.125Z,94524.72
2023-01-17T09:03:40.908Z,94534.81
2023-01-17T09:06:33.553Z,94541.91
2023-01-17T09:09:20.573Z,94530.19
2023-01-17T09:12:07.664Z,94524.94
2023-01-17T09:14:54.654Z,94522.53
2023-01-17T09:17:45.512Z,94528.19
2023-01-17T09:20:35.330Z,94529.78
2023-01-17T09:23:22.764Z,94529.78
2023-01-17T09:26:18.006Z,94543.72
2023-01-17T09:29:08.568Z,94524.34
2023-01-17T09:31:55.411Z,94521.72
2023-01-17T09:34:42.231Z,94520.88
2023-01-17T09:37:29.908Z,94518.66
2023-01-17T09:40:23.187Z,94526.16
2023-01-17T09:43:25.304Z,94525.75
2023-01-17T09:46:22.690Z,94530.19
2023-01-17T09:49:28.353Z,94536.44
2023-01-17T09:52:18.426Z,94528.94
2023-01-17T09:55:07.915Z,94539.84
2023-01-17T09:58:09.619Z,94525.09
2023-01-17T10:01:16.181Z,94520.44
2023-01-17T10:04:38.149Z,94537.22
2023-01-17T10:07:52.145Z,94539.44
2023-01-17T10:10:46.202Z,94533.97
2023-01-17T10:13:57.096Z,94530.13
2023-01-17T10:16:47.282Z,94529.91
2023-01-17T10:20:12.476Z,94531.31
2023-01-17T10:23:25.316Z,94525.66
2023-01-17T10:26:23.438Z,94507.88
2023-01-17T10:29:15.281Z,94498.16
2023-01-17T10:32:03.073Z,94488.84
2023-01-17T10:35:03.602Z,94484.38
2023-01-17T10:37:55.996Z,94485.59
2023-01-17T10:40:50.241Z,94480.72
2023-01-17T10:43:40.430Z,94470.59
2023-01-17T10:46:48.454Z,94452.19
2023-01-17T10:49:37.420Z,94444.31
2023-01-17T10:53:04.308Z,94447.72
2023-01-17T10:55:54.232Z,94435.00
2023-01-17T10:58:41.090Z,94432.78
2023-01-17T11:01:28.203Z,94424.31
2023-01-17T11:04:36.897Z,94415.63
2023-01-17T11:07:28.710Z,94424.31
2023-01-17T11:10:55.205Z,94422.25
2023-01-17T11:13:46.067Z,94413.16
2023-01-17T11:16:32.949Z,94413.56
2023-01-17T11:19:30.477Z,94410.50
2023-01-17T11:22:20.574Z,94425.06
2023-01-17T11:25:16.921Z,94424.03
2023-01-17T11:28:18.886Z,94409.69
2023-01-17T11:31:23.045Z,94412.50
2023-01-17T11:34:19.239Z,94409.28
2023-01-17T11:37:17.166Z,94412.72
2023-01-17T11:40:28.473Z,94404.84
2023-01-17T11:43:22.103Z,94386.84
2023-01-17T11:46:20.352Z,94388.47
2023-01-17T11:49:22.425Z,94376.72
2023-01-17T11:52:10.662Z,94376.50
2023-01-17T11:54:57.543Z,94382.38
2023-01-17T11:57:52.569Z,94377.72
2023-01-17T12:00:45.933Z,94370.41
2023-01-17T12:03:48.513Z,94367.34
2023-01-17T12:33:38.970Z,94312.69
2023-01-17T12:45:57.112Z,94313.75
2023-01-17T12:57:54.637Z,94308.59
2023-01-17T14:50:33.644Z,94232.97
2023-01-17T16:08:06.558Z,94169.31
2023-01-17T16:11:02.223Z,94163.91
2023-01-17T16:13:52.497Z,94151.88
2023-01-17T16:16:39.460Z,94153.25
2023-01-17T16:19:26.922Z,94168.63
2023-01-17T16:22:13.834Z,94152.91
2023-01-17T16:25:01.294Z,94153.94
2023-01-17T16:27:48.912Z,94161.41
2023-01-17T16:30:36.300Z,94163.22
2023-01-17T16:33:23.085Z,94156.59
2023-01-17T16:36:14.903Z,94157.63
2023-01-17T16:39:01.729Z,94146.50
2023-01-17T16:41:50.075Z,94142.69
2023-01-17T16:44:37.179Z,94143.75
2023-01-17T16:47:24.248Z,94129.97
2023-01-17T16:50:13.518Z,94127.78
2023-01-17T16:53:00.433Z,94132.25
2023-01-17T16:55:49.873Z,94117.94
2023-01-17T16:58:38.814Z,94099.25
2023-01-17T17:01:25.720Z,94107.84
2023-01-17T17:04:13.092Z,94091.09
2023-01-17T17:06:59.967Z,94096.38
2023-01-17T17:09:47.575Z,94089.75
2023-01-17T17:12:37.289Z,94079.06
2023-01-17T17:15:24.055Z,94080.78
2023-01-17T17:18:15.433Z,94092.13
2023-01-17T17:21:04.863Z,94102.28
2023-01-17T17:23:58.850Z,94110.78
2023-01-17T17:26:48.822Z,94108.59
2023-01-17T17:29:36.126Z,94102.84
2023-01-17T17:36:43.098Z,94098.69
2023-01-17T17:39:33.340Z,94092.03
2023-01-17T17:42:29.740Z,94106.72
2023-01-17T17:45:34.301Z,94116.34
2023-01-17T17:48:34.119Z,94100.63
2023-01-17T17:51:59.015Z,94107.09
2023-01-17T17:54:51.947Z,94105.25
2023-01-17T17:57:46.634Z,94114.66
2023-01-17T18:05:24.766Z,94101.84
2023-01-17T18:09:30.076Z,94100.25
2023-01-17T18:12:24.371Z,94101.84
2023-01-17T18:15:18.449Z,94108.50
2023-01-17T18:18:13.827Z,94115.72
2023-01-17T18:21:35.550Z,94112.75
2023-01-17T18:24:29.489Z,94121.69
2023-01-17T18:31:08.959Z,94135.19
2023-01-17T18:42:24.766Z,94152.91
2023-01-17T18:45:35.110Z,94155.19
2023-01-17T18:48:44.992Z,94165.41
2023-01-17T18:51:58.673Z,94155.41
2023-01-17T18:54:55.325Z,94164.09
2023-01-17T18:57:58.570Z,94163.22
2023-01-17T19:01:03.439Z,94144.66
2023-01-17T19:07:06.132Z,94147.13
2023-01-17T19:14:06.493Z,94171.44
2023-01-17T19:17:11.471Z,94162.22
2023-01-17T19:20:01.192Z,94154.41
2023-01-17T19:23:18.235Z,94161.28
2023-01-17T19:29:55.997Z,94169.47
2023-01-17T19:33:31.620Z,94191.03
2023-01-17T19:36:39.703Z,94177.59
2023-01-17T19:39:35.404Z,94185.25
2023-01-17T20:05:02.840Z,94183.06
2023-01-17T20:19:41.194Z,94201.34
2023-01-17T20:23:14.807Z,94194.56
2023-01-17T20:30:14.601Z,94210.28
2023-01-17T20:33:58.852Z,94204.28
2023-01-17T20:37:31.934Z,94196.03
2023-01-17T20:40:55.257Z,94204.94
2023-01-17T20:47:37.486Z,94208.16
2023-01-17T20:54:54.023Z,94198.13
2023-01-17T21:02:15.637Z,94208.22
2023-01-17T21:05:17.336Z,94205.81
2023-01-17T21:08:22.733Z,94198.94
2023-01-17T21:11:12.361Z,94202.16
2023-01-17T21:14:01.784Z,94200.56
2023-01-17T21:17:00.167Z,94198.34
2023-01-17T21:19:47.318Z,94194.91
2023-01-17T21:22:34.339Z,94183.44
2023-01-17T21:25:31.900Z,94188.25
2023-01-17T21:28:23.024Z,94189.84
2023-01-17T21:31:23.444Z,94164.44
2023-01-17T21:34:11.601Z,94192.84
2023-01-17T21:37:04.142Z,94176.34
2023-01-17T21:39:56.500Z,94185.44
2023-01-17T21:42:49.741Z,94183.22
2023-01-17T21:45:44.310Z,94180.59
2023-01-17T21:48:35.143Z,94174.75
2023-01-17T21:51:45.399Z,94185.50
2023-01-17T21:54:54.701Z,94174.16
2023-01-17T21:58:02.167Z,94172.16
2023-01-17T22:00:49.439Z,94184.09
2023-01-17T22:03:37.118Z,94179.25
2023-01-17T22:06:29.534Z,94182.31
2023-01-17T22:09:21.920Z,94190.16
2023-01-17T22:12:14.200Z,94182.69
2023-01-17T22:15:01.040Z,94188.84
2023-01-17T22:17:47.895Z,94196.88
2023-01-17T22:20:48.280Z,94200.72
2023-01-17T22:23:37.596Z,94190.88
2023-01-17T22:26:25.405Z,94200.72
2023-01-17T22:29:12.576Z,94202.19
2023-01-17T22:32:04.011Z,94207.88
2023-01-17T22:34:58.616Z,94205.88
2023-01-17T22:37:48.143Z,94197.81
2023-01-17T22:40:40.834Z,94203.50
2023-01-17T22:43:43.684Z,94205.88
2023-01-17T22:46:39.427Z,94216.22
2023-01-17T22:49:32.073Z,94213.22
2023-01-17T22:52:24.782Z,94201.28
2023-01-17T22:55:12.342Z,94209.38
2023-01-17T22:58:04.865Z,94222.31
2023-01-17T23:00:53.803Z,94208.00
2023-01-17T23:03:41.238Z,94213.81
2023-01-17T23:06:35.969Z,94209.81
2023-01-17T23:09:25.221Z,94202.50
2023-01-17T23:12:12.093Z,94217.06
2023-01-17T23:15:21.264Z,94210.91
2023-01-17T23:18:30.329Z,94222.13
2023-01-17T23:21:17.211Z,94217.75
2023-01-17T23:24:10.230Z,94214.34
2023-01-17T23:27:15.782Z,94211.53
2023-01-17T23:30:13.591Z,94219.22
2023-01-17T23:33:03.585Z,94213.34
2023-01-17T23:35:50.558Z,94211.16
2023-01-17T23:38:46.788Z,94217.00
2023-01-17T23:41:57.241Z,94208.31
2023-01-17T23:44:44.050Z,94207.72
2023-01-17T23:47:33.393Z,94214.94
2023-01-17T23:50:20.201Z,94223.84
2023-01-17T23:53:13.637Z,94220.06
2023-01-17T23:56:05.955Z,94222.91
2023-01-17T23:58:52.956Z,94211.00
